sensor_id;sensor_type;location;lat;lon;timestamp;P1;durP1;ratioP1;P2;durP2;ratioP2
20230;SDS011;10274;49.022;9.338;2023-06-01T00:01:00;2.20;;;1.90;;
20230;SDS011;10274;49.022;9.338;2023-06-01T00:03:29;3.30;;;2.33;;
20230;SDS011;10274;49.022;9.338;2023-06-01T00:05:56;3.13;;;2.17;;
20230;SDS011;10274;49.022;9.338;2023-06-01T00:08:22;3.77;;;2.10;;
20230;SDS011;10274;49.022;9.338;2023-06-01T00:10:49;3.07;;;1.97;;
20230;SDS011;10274;49.022;9.338;2023-06-01T00:13:17;3.07;;;2.43;;
20230;SDS011;10274;49.022;9.338;2023-06-01T00:15:44;3.47;;;2.20;;
20230;SDS011;10274;49.022;9.338;2023-06-01T00:18:11;2.17;;;1.97;;
20230;SDS011;10274;49.022;9.338;2023-06-01T00:20:40;2.30;;;2.10;;
20230;SDS011;10274;49.022;9.338;2023-06-01T00:23:07;3.50;;;2.47;;
20230;SDS011;10274;49.022;9.338;2023-06-01T00:25:35;3.07;;;2.10;;
20230;SDS011;10274;49.022;9.338;2023-06-01T00:28:02;3.10;;;2.20;;
20230;SDS011;10274;49.022;9.338;2023-06-01T00:30:30;2.43;;;2.10;;
20230;SDS011;10274;49.022;9.338;2023-06-01T00:32:56;2.80;;;2.27;;
20230;SDS011;10274;49.022;9.338;2023-06-01T00:35:23;2.50;;;1.83;;
20230;SDS011;10274;49.022;9.338;2023-06-01T00:37:50;3.67;;;2.20;;
20230;SDS011;10274;49.022;9.338;2023-06-01T00:40:16;4.20;;;2.10;;
20230;SDS011;10274;49.022;9.338;2023-06-01T00:42:43;3.33;;;2.33;;
20230;SDS011;10274;49.022;9.338;2023-06-01T00:45:10;2.50;;;2.20;;
20230;SDS011;10274;49.022;9.338;2023-06-01T00:47:39;2.90;;;2.20;;
20230;SDS011;10274;49.022;9.338;2023-06-01T00:50:08;2.80;;;2.20;;
20230;SDS011;10274;49.022;9.338;2023-06-01T00:52:35;2.73;;;2.27;;
20230;SDS011;10274;49.022;9.338;2023-06-01T00:55:04;3.60;;;2.20;;
20230;SDS011;10274;49.022;9.338;2023-06-01T00:57:31;2.97;;;2.13;;
20230;SDS011;10274;49.022;9.338;2023-06-01T00:59:59;2.90;;;2.30;;
20230;SDS011;10274;49.022;9.338;2023-06-01T01:02:28;2.97;;;2.40;;
20230;SDS011;10274;49.022;9.338;2023-06-01T01:04:58;2.63;;;2.20;;
20230;SDS011;10274;49.022;9.338;2023-06-01T01:07:25;3.53;;;2.80;;
20230;SDS011;10274;49.022;9.338;2023-06-01T01:09:58;2.90;;;2.30;;
20230;SDS011;10274;49.022;9.338;2023-06-01T01:12:31;3.17;;;2.40;;
20230;SDS011;10274;49.022;9.338;2023-06-01T01:15:06;3.77;;;2.40;;
20230;SDS011;10274;49.022;9.338;2023-06-01T01:17:36;2.90;;;2.30;;
20230;SDS011;10274;49.022;9.338;2023-06-01T01:20:10;3.33;;;2.00;;
20230;SDS011;10274;49.022;9.338;2023-06-01T01:22:57;4.27;;;2.30;;
20230;SDS011;10274;49.022;9.338;2023-06-01T01:25:37;2.60;;;2.40;;
20230;SDS011;10274;49.022;9.338;2023-06-01T01:28:29;2.53;;;2.23;;
20230;SDS011;10274;49.022;9.338;2023-06-01T01:30:59;4.33;;;2.30;;
20230;SDS011;10274;49.022;9.338;2023-06-01T01:33:29;3.73;;;2.40;;
20230;SDS011;10274;49.022;9.338;2023-06-01T01:35:57;3.30;;;2.57;;
20230;SDS011;10274;49.022;9.338;2023-06-01T01:38:25;3.27;;;2.40;;
20230;SDS011;10274;49.022;9.338;2023-06-01T01:40:52;4.57;;;2.33;;
20230;SDS011;10274;49.022;9.338;2023-06-01T01:43:19;2.80;;;2.50;;
20230;SDS011;10274;49.022;9.338;2023-06-01T01:45:49;3.07;;;2.60;;
20230;SDS011;10274;49.022;9.338;2023-06-01T01:48:23;3.87;;;2.10;;
20230;SDS011;10274;49.022;9.338;2023-06-01T01:51:00;3.27;;;2.57;;
20230;SDS011;10274;49.022;9.338;2023-06-01T01:53:32;3.37;;;2.70;;
20230;SDS011;10274;49.022;9.338;2023-06-01T01:56:00;3.33;;;2.30;;
20230;SDS011;10274;49.022;9.338;2023-06-01T01:58:29;3.47;;;2.57;;
20230;SDS011;10274;49.022;9.338;2023-06-01T02:00:57;2.77;;;2.57;;
20230;SDS011;10274;49.022;9.338;2023-06-01T02:03:25;2.80;;;2.57;;
20230;SDS011;10274;49.022;9.338;2023-06-01T02:05:52;2.90;;;2.30;;
20230;SDS011;10274;49.022;9.338;2023-06-01T02:08:19;3.77;;;2.50;;
20230;SDS011;10274;49.022;9.338;2023-06-01T02:10:45;2.87;;;2.27;;
20230;SDS011;10274;49.022;9.338;2023-06-01T02:13:12;2.90;;;2.50;;
20230;SDS011;10274;49.022;9.338;2023-06-01T02:15:39;2.20;;;2.00;;
20230;SDS011;10274;49.022;9.338;2023-06-01T02:18:07;6.40;;;2.57;;
20230;SDS011;10274;49.022;9.338;2023-06-01T02:20:33;2.90;;;2.40;;
20230;SDS011;10274;49.022;9.338;2023-06-01T02:23:00;2.60;;;2.40;;
20230;SDS011;10274;49.022;9.338;2023-06-01T02:25:27;2.23;;;2.00;;
20230;SDS011;10274;49.022;9.338;2023-06-01T02:27:54;4.23;;;2.30;;
20230;SDS011;10274;49.022;9.338;2023-06-01T02:30:20;3.17;;;2.30;;
20230;SDS011;10274;49.022;9.338;2023-06-01T02:32:47;3.47;;;2.63;;
20230;SDS011;10274;49.022;9.338;2023-06-01T02:35:15;2.30;;;2.10;;
20230;SDS011;10274;49.022;9.338;2023-06-01T02:37:42;3.47;;;2.50;;
20230;SDS011;10274;49.022;9.338;2023-06-01T02:40:09;2.67;;;2.30;;
20230;SDS011;10274;49.022;9.338;2023-06-01T02:42:36;3.00;;;2.30;;
20230;SDS011;10274;49.022;9.338;2023-06-01T02:45:03;3.10;;;2.37;;
20230;SDS011;10274;49.022;9.338;2023-06-01T02:47:31;2.93;;;2.40;;
20230;SDS011;10274;49.022;9.338;2023-06-01T02:49:57;4.83;;;2.77;;
20230;SDS011;10274;49.022;9.338;2023-06-01T02:52:25;4.27;;;2.60;;
20230;SDS011;10274;49.022;9.338;2023-06-01T02:54:52;5.30;;;2.80;;
20230;SDS011;10274;49.022;9.338;2023-06-01T02:57:19;3.47;;;2.57;;
20230;SDS011;10274;49.022;9.338;2023-06-01T02:59:45;3.83;;;2.83;;
20230;SDS011;10274;49.022;9.338;2023-06-01T03:02:12;2.77;;;2.40;;
20230;SDS011;10274;49.022;9.338;2023-06-01T03:04:39;2.93;;;2.63;;
20230;SDS011;10274;49.022;9.338;2023-06-01T03:07:06;3.80;;;2.90;;
20230;SDS011;10274;49.022;9.338;2023-06-01T03:09:34;3.43;;;2.50;;
20230;SDS011;10274;49.022;9.338;2023-06-01T03:12:01;3.00;;;2.40;;
20230;SDS011;10274;49.022;9.338;2023-06-01T03:14:28;3.47;;;2.40;;
20230;SDS011;10274;49.022;9.338;2023-06-01T03:16:54;2.93;;;2.53;;
20230;SDS011;10274;49.022;9.338;2023-06-01T03:19:21;3.80;;;2.57;;
20230;SDS011;10274;49.022;9.338;2023-06-01T03:21:48;3.50;;;2.50;;
20230;SDS011;10274;49.022;9.338;2023-06-01T03:24:14;2.97;;;2.43;;
20230;SDS011;10274;49.022;9.338;2023-06-01T03:26:43;3.43;;;2.50;;
20230;SDS011;10274;49.022;9.338;2023-06-01T03:29:10;4.53;;;2.57;;
20230;SDS011;10274;49.022;9.338;2023-06-01T03:31:37;2.80;;;2.10;;
20230;SDS011;10274;49.022;9.338;2023-06-01T03:34:03;4.20;;;2.63;;
20230;SDS011;10274;49.022;9.338;2023-06-01T03:36:30;2.90;;;2.53;;
20230;SDS011;10274;49.022;9.338;2023-06-01T03:38:57;2.70;;;2.00;;
20230;SDS011;10274;49.022;9.338;2023-06-01T03:41:24;2.80;;;2.20;;
20230;SDS011;10274;49.022;9.338;2023-06-01T03:43:52;4.80;;;2.40;;
20230;SDS011;10274;49.022;9.338;2023-06-01T03:46:19;3.23;;;2.73;;
20230;SDS011;10274;49.022;9.338;2023-06-01T03:48:46;3.53;;;2.33;;
20230;SDS011;10274;49.022;9.338;2023-06-01T03:51:12;3.37;;;2.67;;
20230;SDS011;10274;49.022;9.338;2023-06-01T03:53:39;4.00;;;2.57;;
20230;SDS011;10274;49.022;9.338;2023-06-01T03:56:06;2.40;;;2.20;;
20230;SDS011;10274;49.022;9.338;2023-06-01T03:58:33;3.77;;;2.97;;
20230;SDS011;10274;49.022;9.338;2023-06-01T04:01:01;2.87;;;2.47;;
20230;SDS011;10274;49.022;9.338;2023-06-01T04:03:28;4.60;;;2.40;;
20230;SDS011;10274;49.022;9.338;2023-06-01T04:05:55;3.73;;;2.60;;
20230;SDS011;10274;49.022;9.338;2023-06-01T04:08:24;2.40;;;2.13;;
20230;SDS011;10274;49.022;9.338;2023-06-01T04:10:51;4.00;;;2.50;;
20230;SDS011;10274;49.022;9.338;2023-06-01T04:13:18;2.93;;;2.43;;
20230;SDS011;10274;49.022;9.338;2023-06-01T04:15:45;3.63;;;2.40;;
20230;SDS011;10274;49.022;9.338;2023-06-01T04:18:13;4.07;;;2.70;;
20230;SDS011;10274;49.022;9.338;2023-06-01T04:20:40;2.50;;;2.30;;
20230;SDS011;10274;49.022;9.338;2023-06-01T04:23:07;4.77;;;2.47;;
20230;SDS011;10274;49.022;9.338;2023-06-01T04:25:33;3.00;;;2.67;;
20230;SDS011;10274;49.022;9.338;2023-06-01T04:28:00;2.40;;;2.20;;
20230;SDS011;10274;49.022;9.338;2023-06-01T04:30:27;3.40;;;2.40;;
20230;SDS011;10274;49.022;9.338;2023-06-01T04:32:54;3.30;;;2.47;;
20230;SDS011;10274;49.022;9.338;2023-06-01T04:35:22;4.13;;;2.67;;
20230;SDS011;10274;49.022;9.338;2023-06-01T04:37:49;3.53;;;2.70;;
20230;SDS011;10274;49.022;9.338;2023-06-01T04:40:15;4.83;;;2.60;;
20230;SDS011;10274;49.022;9.338;2023-06-01T04:42:43;3.57;;;2.80;;
20230;SDS011;10274;49.022;9.338;2023-06-01T04:45:14;3.37;;;2.70;;
20230;SDS011;10274;49.022;9.338;2023-06-01T04:47:41;3.77;;;3.00;;
20230;SDS011;10274;49.022;9.338;2023-06-01T04:50:10;6.07;;;2.87;;
20230;SDS011;10274;49.022;9.338;2023-06-01T04:52:40;3.77;;;2.47;;
20230;SDS011;10274;49.022;9.338;2023-06-01T04:55:08;2.90;;;2.47;;
20230;SDS011;10274;49.022;9.338;2023-06-01T04:57:38;2.67;;;2.40;;
20230;SDS011;10274;49.022;9.338;2023-06-01T05:00:08;2.87;;;2.40;;
20230;SDS011;10274;49.022;9.338;2023-06-01T05:02:37;2.50;;;2.20;;
20230;SDS011;10274;49.022;9.338;2023-06-01T05:05:05;3.20;;;2.60;;
20230;SDS011;10274;49.022;9.338;2023-06-01T05:07:32;2.60;;;2.40;;
20230;SDS011;10274;49.022;9.338;2023-06-01T05:10:00;4.70;;;2.33;;
20230;SDS011;10274;49.022;9.338;2023-06-01T05:12:30;3.03;;;2.70;;
20230;SDS011;10274;49.022;9.338;2023-06-01T05:14:57;3.37;;;2.77;;
20230;SDS011;10274;49.022;9.338;2023-06-01T05:17:24;3.70;;;2.67;;
20230;SDS011;10274;49.022;9.338;2023-06-01T05:19:51;3.60;;;2.43;;
20230;SDS011;10274;49.022;9.338;2023-06-01T05:22:18;3.53;;;2.30;;
20230;SDS011;10274;49.022;9.338;2023-06-01T05:24:44;2.83;;;2.53;;
20230;SDS011;10274;49.022;9.338;2023-06-01T05:27:12;2.60;;;2.20;;
20230;SDS011;10274;49.022;9.338;2023-06-01T05:29:39;2.93;;;2.67;;
20230;SDS011;10274;49.022;9.338;2023-06-01T05:32:06;3.43;;;2.47;;
20230;SDS011;10274;49.022;9.338;2023-06-01T05:34:34;5.27;;;2.57;;
20230;SDS011;10274;49.022;9.338;2023-06-01T05:37:01;5.43;;;2.40;;
20230;SDS011;10274;49.022;9.338;2023-06-01T05:39:28;3.03;;;2.30;;
20230;SDS011;10274;49.022;9.338;2023-06-01T05:41:55;2.23;;;2.03;;
20230;SDS011;10274;49.022;9.338;2023-06-01T05:44:23;3.87;;;2.97;;
20230;SDS011;10274;49.022;9.338;2023-06-01T05:46:50;4.67;;;2.27;;
20230;SDS011;10274;49.022;9.338;2023-06-01T05:49:17;2.87;;;2.17;;
20230;SDS011;10274;49.022;9.338;2023-06-01T05:51:44;3.27;;;2.00;;
20230;SDS011;10274;49.022;9.338;2023-06-01T05:54:11;3.07;;;2.50;;
20230;SDS011;10274;49.022;9.338;2023-06-01T05:56:38;3.47;;;2.70;;
20230;SDS011;10274;49.022;9.338;2023-06-01T05:59:05;3.90;;;2.67;;
20230;SDS011;10274;49.022;9.338;2023-06-01T06:01:33;4.10;;;2.50;;
20230;SDS011;10274;49.022;9.338;2023-06-01T06:04:01;4.40;;;2.77;;
20230;SDS011;10274;49.022;9.338;2023-06-01T06:06:27;3.70;;;2.80;;
20230;SDS011;10274;49.022;9.338;2023-06-01T06:08:55;3.60;;;2.37;;
20230;SDS011;10274;49.022;9.338;2023-06-01T06:11:22;4.20;;;2.40;;
20230;SDS011;10274;49.022;9.338;2023-06-01T06:13:49;3.13;;;2.10;;
20230;SDS011;10274;49.022;9.338;2023-06-01T06:16:15;4.47;;;2.30;;
20230;SDS011;10274;49.022;9.338;2023-06-01T06:18:44;4.67;;;2.77;;
20230;SDS011;10274;49.022;9.338;2023-06-01T06:21:10;3.23;;;2.30;;
20230;SDS011;10274;49.022;9.338;2023-06-01T06:23:37;4.20;;;2.50;;
20230;SDS011;10274;49.022;9.338;2023-06-01T06:26:04;2.83;;;2.37;;
20230;SDS011;10274;49.022;9.338;2023-06-01T06:28:31;5.70;;;2.50;;
20230;SDS011;10274;49.022;9.338;2023-06-01T06:30:58;7.70;;;2.50;;
20230;SDS011;10274;49.022;9.338;2023-06-01T06:33:25;2.53;;;2.10;;
20230;SDS011;10274;49.022;9.338;2023-06-01T06:35:53;2.37;;;2.13;;
20230;SDS011;10274;49.022;9.338;2023-06-01T06:38:20;2.87;;;2.10;;
20230;SDS011;10274;49.022;9.338;2023-06-01T06:40:47;4.57;;;2.50;;
20230;SDS011;10274;49.022;9.338;2023-06-01T06:43:14;6.17;;;1.97;;
20230;SDS011;10274;49.022;9.338;2023-06-01T06:45:41;3.23;;;2.10;;
20230;SDS011;10274;49.022;9.338;2023-06-01T06:48:08;2.50;;;2.30;;
20230;SDS011;10274;49.022;9.338;2023-06-01T06:50:34;2.33;;;1.90;;
20230;SDS011;10274;49.022;9.338;2023-06-01T06:53:03;2.47;;;2.20;;
20230;SDS011;10274;49.022;9.338;2023-06-01T06:55:30;2.33;;;1.83;;
20230;SDS011;10274;49.022;9.338;2023-06-01T06:57:57;6.20;;;2.37;;
20230;SDS011;10274;49.022;9.338;2023-06-01T07:00:23;4.10;;;1.87;;
20230;SDS011;10274;49.022;9.338;2023-06-01T07:02:50;3.57;;;2.23;;
20230;SDS011;10274;49.022;9.338;2023-06-01T07:05:17;3.20;;;2.07;;
20230;SDS011;10274;49.022;9.338;2023-06-01T07:07:44;3.90;;;2.50;;
20230;SDS011;10274;49.022;9.338;2023-06-01T07:10:13;2.73;;;2.10;;
20230;SDS011;10274;49.022;9.338;2023-06-01T07:12:40;3.07;;;2.10;;
20230;SDS011;10274;49.022;9.338;2023-06-01T07:15:07;3.17;;;2.00;;
20230;SDS011;10274;49.022;9.338;2023-06-01T07:17:35;4.33;;;2.33;;
20230;SDS011;10274;49.022;9.338;2023-06-01T07:20:02;3.03;;;2.20;;
20230;SDS011;10274;49.022;9.338;2023-06-01T07:22:31;4.30;;;2.20;;
20230;SDS011;10274;49.022;9.338;2023-06-01T07:24:58;4.37;;;2.03;;
20230;SDS011;10274;49.022;9.338;2023-06-01T07:27:26;2.73;;;2.30;;
20230;SDS011;10274;49.022;9.338;2023-06-01T07:29:53;5.30;;;2.33;;
20230;SDS011;10274;49.022;9.338;2023-06-01T07:32:21;3.60;;;2.00;;
20230;SDS011;10274;49.022;9.338;2023-06-01T07:34:48;3.20;;;2.17;;
20230;SDS011;10274;49.022;9.338;2023-06-01T07:37:14;8.20;;;2.80;;
20230;SDS011;10274;49.022;9.338;2023-06-01T07:39:46;4.00;;;2.37;;
20230;SDS011;10274;49.022;9.338;2023-06-01T07:42:13;7.90;;;2.50;;
20230;SDS011;10274;49.022;9.338;2023-06-01T07:44:42;5.13;;;2.93;;
20230;SDS011;10274;49.022;9.338;2023-06-01T07:47:08;5.57;;;2.20;;
20230;SDS011;10274;49.022;9.338;2023-06-01T07:49:35;2.60;;;2.03;;
20230;SDS011;10274;49.022;9.338;2023-06-01T07:52:02;3.50;;;2.27;;
20230;SDS011;10274;49.022;9.338;2023-06-01T07:54:29;3.70;;;2.47;;
20230;SDS011;10274;49.022;9.338;2023-06-01T07:56:56;2.67;;;2.17;;
20230;SDS011;10274;49.022;9.338;2023-06-01T07:59:23;6.40;;;2.40;;
20230;SDS011;10274;49.022;9.338;2023-06-01T08:01:51;7.90;;;2.87;;
20230;SDS011;10274;49.022;9.338;2023-06-01T08:04:19;2.70;;;2.20;;
20230;SDS011;10274;49.022;9.338;2023-06-01T08:06:46;3.00;;;2.10;;
20230;SDS011;10274;49.022;9.338;2023-06-01T08:09:13;2.10;;;1.87;;
20230;SDS011;10274;49.022;9.338;2023-06-01T08:11:40;5.63;;;2.30;;
20230;SDS011;10274;49.022;9.338;2023-06-01T08:14:07;4.53;;;2.20;;
20230;SDS011;10274;49.022;9.338;2023-06-01T08:16:34;2.60;;;2.23;;
20230;SDS011;10274;49.022;9.338;2023-06-01T08:19:02;3.95;;;2.28;;
20230;SDS011;10274;49.022;9.338;2023-06-01T08:21:29;2.53;;;2.10;;
20230;SDS011;10274;49.022;9.338;2023-06-01T08:23:56;4.95;;;2.20;;
20230;SDS011;10274;49.022;9.338;2023-06-01T13:42:30;2.42;;;1.60;;
20230;SDS011;10274;49.022;9.338;2023-06-01T13:44:57;1.80;;;1.60;;
20230;SDS011;10274;49.022;9.338;2023-06-01T13:47:24;2.40;;;1.55;;
20230;SDS011;10274;49.022;9.338;2023-06-01T13:49:51;4.03;;;2.00;;
20230;SDS011;10274;49.022;9.338;2023-06-01T13:52:18;2.15;;;1.52;;
20230;SDS011;10274;49.022;9.338;2023-06-01T13:54:45;1.90;;;1.33;;
20230;SDS011;10274;49.022;9.338;2023-06-01T13:57:13;1.60;;;1.50;;
20230;SDS011;10274;49.022;9.338;2023-06-01T13:59:39;1.73;;;1.63;;
20230;SDS011;10274;49.022;9.338;2023-06-01T14:02:06;1.50;;;1.40;;
20230;SDS011;10274;49.022;9.338;2023-06-01T14:04:33;1.63;;;1.52;;
20230;SDS011;10274;49.022;9.338;2023-06-01T14:07:00;1.88;;;1.42;;
20230;SDS011;10274;49.022;9.338;2023-06-01T14:09:27;1.98;;;1.50;;
20230;SDS011;10274;49.022;9.338;2023-06-01T14:11:53;1.65;;;1.27;;
20230;SDS011;10274;49.022;9.338;2023-06-01T14:14:21;6.13;;;1.80;;
20230;SDS011;10274;49.022;9.338;2023-06-01T14:16:48;3.05;;;1.42;;
20230;SDS011;10274;49.022;9.338;2023-06-01T14:19:16;1.52;;;1.40;;
20230;SDS011;10274;49.022;9.338;2023-06-01T14:21:42;1.77;;;1.50;;
20230;SDS011;10274;49.022;9.338;2023-06-01T14:24:09;1.95;;;1.35;;
20230;SDS011;10274;49.022;9.338;2023-06-01T14:26:36;1.77;;;1.45;;
20230;SDS011;10274;49.022;9.338;2023-06-01T14:29:02;2.85;;;1.65;;
20230;SDS011;10274;49.022;9.338;2023-06-01T14:31:31;2.50;;;1.80;;
20230;SDS011;10274;49.022;9.338;2023-06-01T14:33:57;2.83;;;1.45;;
20230;SDS011;10274;49.022;9.338;2023-06-01T14:36:24;2.17;;;1.50;;
20230;SDS011;10274;49.022;9.338;2023-06-01T14:38:51;1.73;;;1.40;;
20230;SDS011;10274;49.022;9.338;2023-06-01T14:41:17;2.45;;;1.52;;
20230;SDS011;10274;49.022;9.338;2023-06-01T14:43:44;4.85;;;1.63;;
20230;SDS011;10274;49.022;9.338;2023-06-01T14:46:11;1.70;;;1.50;;
20230;SDS011;10274;49.022;9.338;2023-06-01T14:48:39;2.30;;;1.50;;
20230;SDS011;10274;49.022;9.338;2023-06-01T14:51:05;1.83;;;1.50;;
20230;SDS011;10274;49.022;9.338;2023-06-01T14:53:33;3.33;;;1.75;;
20230;SDS011;10274;49.022;9.338;2023-06-01T14:56:00;2.17;;;1.58;;
20230;SDS011;10274;49.022;9.338;2023-06-01T14:58:28;2.92;;;1.63;;
20230;SDS011;10274;49.022;9.338;2023-06-01T15:00:55;1.75;;;1.30;;
20230;SDS011;10274;49.022;9.338;2023-06-01T15:03:22;2.30;;;1.75;;
20230;SDS011;10274;49.022;9.338;2023-06-01T15:05:50;1.70;;;1.55;;
20230;SDS011;10274;49.022;9.338;2023-06-01T15:08:17;1.63;;;1.20;;
20230;SDS011;10274;49.022;9.338;2023-06-01T15:10:45;4.00;;;1.50;;
20230;SDS011;10274;49.022;9.338;2023-06-01T15:13:12;3.35;;;1.67;;
20230;SDS011;10274;49.022;9.338;2023-06-01T15:15:39;1.55;;;1.40;;
20230;SDS011;10274;49.022;9.338;2023-06-01T15:18:06;1.80;;;1.48;;
20230;SDS011;10274;49.022;9.338;2023-06-01T15:20:32;1.58;;;1.38;;
20230;SDS011;10274;49.022;9.338;2023-06-01T15:23:00;1.38;;;1.20;;
20230;SDS011;10274;49.022;9.338;2023-06-01T15:25:27;1.65;;;1.17;;
20230;SDS011;10274;49.022;9.338;2023-06-01T15:27:54;1.35;;;1.20;;
20230;SDS011;10274;49.022;9.338;2023-06-01T15:30:20;2.17;;;1.50;;
20230;SDS011;10274;49.022;9.338;2023-06-01T15:32:47;1.48;;;1.30;;
20230;SDS011;10274;49.022;9.338;2023-06-01T15:35:14;1.83;;;1.33;;
20230;SDS011;10274;49.022;9.338;2023-06-01T15:37:41;1.88;;;1.33;;
20230;SDS011;10274;49.022;9.338;2023-06-01T15:40:12;2.33;;;1.50;;
20230;SDS011;10274;49.022;9.338;2023-06-01T15:42:40;3.85;;;1.63;;
20230;SDS011;10274;49.022;9.338;2023-06-01T15:45:07;1.30;;;1.20;;
20230;SDS011;10274;49.022;9.338;2023-06-01T15:47:34;3.00;;;1.27;;
20230;SDS011;10274;49.022;9.338;2023-06-01T15:50:01;3.15;;;1.30;;
20230;SDS011;10274;49.022;9.338;2023-06-01T15:52:28;1.73;;;1.40;;
20230;SDS011;10274;49.022;9.338;2023-06-01T15:54:55;1.65;;;1.23;;
20230;SDS011;10274;49.022;9.338;2023-06-01T15:57:23;2.08;;;1.50;;
20230;SDS011;10274;49.022;9.338;2023-06-01T15:59:50;2.03;;;1.50;;
20230;SDS011;10274;49.022;9.338;2023-06-01T16:02:17;2.13;;;1.40;;
20230;SDS011;10274;49.022;9.338;2023-06-01T16:04:43;1.77;;;1.30;;
20230;SDS011;10274;49.022;9.338;2023-06-01T16:07:10;1.73;;;1.08;;
20230;SDS011;10274;49.022;9.338;2023-06-01T16:09:37;1.55;;;1.35;;
20230;SDS011;10274;49.022;9.338;2023-06-01T16:12:04;1.73;;;1.60;;
20230;SDS011;10274;49.022;9.338;2023-06-01T16:14:32;3.90;;;1.70;;
20230;SDS011;10274;49.022;9.338;2023-06-01T16:17:00;2.38;;;1.63;;
20230;SDS011;10274;49.022;9.338;2023-06-01T16:19:26;1.92;;;1.58;;
20230;SDS011;10274;49.022;9.338;2023-06-01T16:21:53;3.53;;;1.52;;
20230;SDS011;10274;49.022;9.338;2023-06-01T16:24:22;1.40;;;1.30;;
20230;SDS011;10274;49.022;9.338;2023-06-01T16:26:49;1.92;;;1.35;;
20230;SDS011;10274;49.022;9.338;2023-06-01T16:29:16;2.00;;;1.60;;
20230;SDS011;10274;49.022;9.338;2023-06-01T16:31:44;2.30;;;1.25;;
20230;SDS011;10274;49.022;9.338;2023-06-01T16:34:11;1.88;;;1.20;;
20230;SDS011;10274;49.022;9.338;2023-06-01T16:36:37;2.35;;;1.58;;
20230;SDS011;10274;49.022;9.338;2023-06-01T16:39:04;3.22;;;1.83;;
20230;SDS011;10274;49.022;9.338;2023-06-01T16:41:31;1.58;;;1.38;;
20230;SDS011;10274;49.022;9.338;2023-06-01T16:43:58;1.48;;;1.17;;
20230;SDS011;10274;49.022;9.338;2023-06-01T16:46:25;1.73;;;1.40;;
20230;SDS011;10274;49.022;9.338;2023-06-01T16:48:53;2.53;;;1.60;;
20230;SDS011;10274;49.022;9.338;2023-06-01T16:51:20;1.42;;;1.27;;
20230;SDS011;10274;49.022;9.338;2023-06-01T16:53:47;2.22;;;1.33;;
20230;SDS011;10274;49.022;9.338;2023-06-01T16:56:15;1.88;;;1.52;;
20230;SDS011;10274;49.022;9.338;2023-06-01T16:58:42;1.13;;;1.02;;
20230;SDS011;10274;49.022;9.338;2023-06-01T17:01:08;3.08;;;1.70;;
20230;SDS011;10274;49.022;9.338;2023-06-01T17:03:35;2.92;;;1.55;;
20230;SDS011;10274;49.022;9.338;2023-06-01T17:06:04;3.63;;;1.60;;
20230;SDS011;10274;49.022;9.338;2023-06-01T17:08:31;1.85;;;1.70;;
20230;SDS011;10274;49.022;9.338;2023-06-01T17:10:58;2.03;;;1.50;;
20230;SDS011;10274;49.022;9.338;2023-06-01T17:13:24;1.80;;;1.40;;
20230;SDS011;10274;49.022;9.338;2023-06-01T17:15:51;1.80;;;1.48;;
20230;SDS011;10274;49.022;9.338;2023-06-01T17:18:18;2.38;;;1.30;;
20230;SDS011;10274;49.022;9.338;2023-06-01T17:20:45;1.52;;;1.20;;
20230;SDS011;10274;49.022;9.338;2023-06-01T17:23:13;2.15;;;1.50;;
20230;SDS011;10274;49.022;9.338;2023-06-01T17:25:40;2.10;;;1.25;;
20230;SDS011;10274;49.022;9.338;2023-06-01T17:28:06;1.92;;;1.40;;
20230;SDS011;10274;49.022;9.338;2023-06-01T17:30:33;1.70;;;1.38;;
20230;SDS011;10274;49.022;9.338;2023-06-01T17:33:00;1.70;;;1.20;;
20230;SDS011;10274;49.022;9.338;2023-06-01T17:35:27;2.10;;;1.48;;
20230;SDS011;10274;49.022;9.338;2023-06-01T17:37:54;1.67;;;1.48;;
20230;SDS011;10274;49.022;9.338;2023-06-01T17:40:22;3.63;;;1.40;;
20230;SDS011;10274;49.022;9.338;2023-06-01T17:42:49;2.28;;;1.60;;
20230;SDS011;10274;49.022;9.338;2023-06-01T17:45:15;1.77;;;1.67;;
20230;SDS011;10274;49.022;9.338;2023-06-01T17:47:42;2.00;;;1.58;;
20230;SDS011;10274;49.022;9.338;2023-06-01T17:50:09;3.67;;;1.58;;
20230;SDS011;10274;49.022;9.338;2023-06-01T17:52:36;1.83;;;1.50;;
20230;SDS011;10274;49.022;9.338;2023-06-01T17:55:03;2.35;;;1.45;;
20230;SDS011;10274;49.022;9.338;2023-06-01T17:57:31;2.30;;;1.30;;
20230;SDS011;10274;49.022;9.338;2023-06-01T17:59:58;2.03;;;1.17;;
20230;SDS011;10274;49.022;9.338;2023-06-01T18:02:25;2.30;;;1.77;;
20230;SDS011;10274;49.022;9.338;2023-06-01T18:04:51;2.17;;;1.60;;
20230;SDS011;10274;49.022;9.338;2023-06-01T18:07:18;1.52;;;1.38;;
20230;SDS011;10274;49.022;9.338;2023-06-01T18:09:45;1.55;;;1.45;;
20230;SDS011;10274;49.022;9.338;2023-06-01T18:12:13;2.95;;;1.40;;
20230;SDS011;10274;49.022;9.338;2023-06-01T18:14:41;2.00;;;1.60;;
20230;SDS011;10274;49.022;9.338;2023-06-01T18:17:08;3.83;;;1.50;;
20230;SDS011;10274;49.022;9.338;2023-06-01T18:19:34;2.78;;;1.52;;
20230;SDS011;10274;49.022;9.338;2023-06-01T18:22:01;2.47;;;1.60;;
20230;SDS011;10274;49.022;9.338;2023-06-01T18:24:28;2.35;;;1.70;;
20230;SDS011;10274;49.022;9.338;2023-06-01T18:26:54;2.43;;;1.43;;
20230;SDS011;10274;49.022;9.338;2023-06-01T18:29:21;2.10;;;1.63;;
20230;SDS011;10274;49.022;9.338;2023-06-01T18:31:49;2.45;;;1.92;;
20230;SDS011;10274;49.022;9.338;2023-06-01T18:34:16;2.40;;;2.00;;
20230;SDS011;10274;49.022;9.338;2023-06-01T18:36:43;2.53;;;1.87;;
20230;SDS011;10274;49.022;9.338;2023-06-01T18:39:09;2.00;;;1.60;;
20230;SDS011;10274;49.022;9.338;2023-06-01T18:41:38;1.83;;;1.63;;
20230;SDS011;10274;49.022;9.338;2023-06-01T18:44:06;2.23;;;1.67;;
20230;SDS011;10274;49.022;9.338;2023-06-01T18:46:33;2.77;;;1.70;;
20230;SDS011;10274;49.022;9.338;2023-06-01T18:49:03;2.33;;;1.67;;
20230;SDS011;10274;49.022;9.338;2023-06-01T18:51:30;2.40;;;1.70;;
20230;SDS011;10274;49.022;9.338;2023-06-01T18:53:58;2.77;;;1.80;;
20230;SDS011;10274;49.022;9.338;2023-06-01T18:56:25;2.77;;;1.93;;
20230;SDS011;10274;49.022;9.338;2023-06-01T18:58:52;2.40;;;1.90;;
20230;SDS011;10274;49.022;9.338;2023-06-01T19:01:18;3.30;;;2.20;;
20230;SDS011;10274;49.022;9.338;2023-06-01T19:03:46;3.73;;;2.43;;
20230;SDS011;10274;49.022;9.338;2023-06-01T19:06:16;3.47;;;2.50;;
20230;SDS011;10274;49.022;9.338;2023-06-01T19:08:43;2.40;;;2.20;;
20230;SDS011;10274;49.022;9.338;2023-06-01T19:11:09;2.60;;;2.00;;
20230;SDS011;10274;49.022;9.338;2023-06-01T19:13:37;4.00;;;1.97;;
20230;SDS011;10274;49.022;9.338;2023-06-01T19:16:06;2.97;;;2.00;;
20230;SDS011;10274;49.022;9.338;2023-06-01T19:18:37;2.63;;;1.70;;
20230;SDS011;10274;49.022;9.338;2023-06-01T19:21:10;3.40;;;1.73;;
20230;SDS011;10274;49.022;9.338;2023-06-01T19:23:44;3.60;;;2.10;;
20230;SDS011;10274;49.022;9.338;2023-06-01T19:26:15;3.07;;;1.90;;
20230;SDS011;10274;49.022;9.338;2023-06-01T19:28:43;2.57;;;1.73;;
20230;SDS011;10274;49.022;9.338;2023-06-01T19:31:10;2.13;;;1.90;;
20230;SDS011;10274;49.022;9.338;2023-06-01T19:33:37;2.80;;;2.00;;
20230;SDS011;10274;49.022;9.338;2023-06-01T19:36:04;2.47;;;1.90;;
20230;SDS011;10274;49.022;9.338;2023-06-01T19:38:32;2.90;;;1.90;;
20230;SDS011;10274;49.022;9.338;2023-06-01T19:41:00;3.13;;;1.80;;
20230;SDS011;10274;49.022;9.338;2023-06-01T19:46:16;2.60;;;2.30;;
20230;SDS011;10274;49.022;9.338;2023-06-01T19:48:44;6.03;;;2.70;;
20230;SDS011;10274;49.022;9.338;2023-06-01T19:51:11;2.90;;;2.23;;
20230;SDS011;10274;49.022;9.338;2023-06-01T19:53:41;2.87;;;2.17;;
20230;SDS011;10274;49.022;9.338;2023-06-01T19:56:11;2.97;;;2.33;;
20230;SDS011;10274;49.022;9.338;2023-06-01T19:58:55;2.67;;;2.03;;
20230;SDS011;10274;49.022;9.338;2023-06-01T20:01:21;3.00;;;1.80;;
20230;SDS011;10274;49.022;9.338;2023-06-01T20:03:49;3.07;;;2.03;;
20230;SDS011;10274;49.022;9.338;2023-06-01T20:06:16;3.07;;;2.10;;
20230;SDS011;10274;49.022;9.338;2023-06-01T20:08:44;3.37;;;2.67;;